Time;durP1;ratioP1;P1;durP2;ratioP2;P2;SDS_P1;SDS_P2;PMS_P1;PMS_P2;Temp;Humidity;BMP_temperature;BMP_pressure;BME280_temperature;BME280_humidity;BME280_pressure;Samples;Min_cycle;Max_cycle;Signal;HPM_P1;HPM_P2
2024/02/20 00:00:14;;;;;;;;;;;;;;;;;;4938120;28;91419;-94
2024/02/20 00:02:40;;;;;;;;;;;;;;;;;;4937717;28;91502;-95
2024/02/20 00:05:08;;;;;;;;;;;;;;;;;;4938719;28;91787;-94
2024/02/20 00:07:33;;;;;;;;;;;;;;;;;;4938523;28;91003;-95
2024/02/20 00:09:59;;;;;;;;;;;;;;;;;;4939782;28;90780;-95
2024/02/20 00:12:24;;;;;;;;;;;;;;;;;;4942458;28;89646;-96
2024/02/20 00:14:49;;;;;;;;;;;;;;;;;;4938330;28;91991;-95
2024/02/20 00:17:15;;;;;;;;;;;;;;;;;;4954438;28;89623;-95
2024/02/20 00:19:40;;;;;;;;;;;;;;;;;;4959621;28;88863;-95
2024/02/20 00:22:05;;;;;;;;;;;;;;;;;;4958659;28;92095;-96
2024/02/20 00:24:30;;;;;;;;;;;;;;;;;;4958532;28;89164;-95
2024/02/20 00:26:56;;;;;;;;;;;;;;;;;;4955497;28;91007;-96
2024/02/20 00:29:21;;;;;;;;;;;;;;;;;;4959174;28;90823;-95
2024/02/20 00:31:47;;;;;;;;;;;;;;;;;;4958394;28;90527;-95
2024/02/20 00:34:12;;;;;;;;;;;;;;;;;;4961477;28;90992;-95
2024/02/20 00:36:37;;;;;;;;;;;;;;;;;;4961488;28;88461;-95
2024/02/20 00:39:03;;;;;;;;;;;;;;;;;;4958565;28;92536;-95
2024/02/20 00:41:28;;;;;;;;;;;;;;;;;;4960241;28;91095;-95
2024/02/20 00:43:54;;;;;;;;;;;;;;;;;;4961084;28;89427;-93
2024/02/20 00:46:20;;;;;;;;;;;;;;;;;;4960487;28;91471;-95
2024/02/20 00:48:46;;;;;;;;;;;;;;;;;;4960954;28;90943;-94
2024/02/20 00:51:14;;;;;;;;;;;;;;;;;;4961186;28;89441;-95
2024/02/20 00:53:40;;;;;;;;;;;;;;;;;;4961322;28;92458;-96
2024/02/20 00:56:06;;;;;;;;;;;;;;;;;;4965719;28;89602;-94
2024/02/20 00:58:31;;;;;;;;;;;;;;;;;;4962635;28;90986;-96
2024/02/20 01:00:57;;;;;;;;;;;;;;;;;;4962482;28;90655;-96
2024/02/20 01:03:23;;;;;;;;;;;;;;;;;;4961633;28;89571;-95
2024/02/20 01:05:48;;;;;;;;;;;;;;;;;;4978648;28;91283;-95
2024/02/20 01:08:13;;;;;;;;;;;;;;;;;;4962347;28;89409;-95
2024/02/20 01:10:39;;;;;;;;;;;;;;;;;;4961988;28;90793;-95
2024/02/20 01:13:04;;;;;;;;;;;;;;;;;;4960264;28;91201;-95
2024/02/20 01:15:29;;;;;;;;;;;;;;;;;;4960982;28;91082;-95
2024/02/20 01:17:54;;;;;;;;;;;;;;;;;;4963171;28;90006;-95
2024/02/20 01:20:20;;;;;;;;;;;;;;;;;;4961724;28;91163;-96
2024/02/20 01:22:45;;;;;;;;;;;;;;;;;;4960194;28;88958;-96
2024/02/20 01:25:11;;;;;;;;;;;;;;;;;;4959827;28;92481;-95
2024/02/20 01:27:36;;;;;;;;;;;;;;;;;;4959313;28;91162;-94
2024/02/20 01:30:02;;;;;;;;;;;;;;;;;;4960035;28;89456;-95
2024/02/20 01:32:27;;;;;;;;;;;;;;;;;;4959524;28;91570;-96
2024/02/20 01:34:52;;;;;;;;;;;;;;;;;;4959103;28;89296;-96
2024/02/20 01:37:17;;;;;;;;;;;;;;;;;;4961282;28;88981;-96
2024/02/20 01:39:43;;;;;;;;;;;;;;;;;;4961859;28;89063;-96
2024/02/20 01:42:08;;;;;;;;;;;;;;;;;;4958482;28;90075;-95
2024/02/20 01:44:33;;;;;;;;;;;;;;;;;;4958603;28;91580;-95
2024/02/20 01:47:00;;;;;;;;;;;;;;;;;;4957784;28;91081;-96
2024/02/20 01:49:26;;;;;;;;;;;;;;;;;;4958235;28;89202;-95
2024/02/20 01:51:52;;;;;;;;;;;;;;;;;;4958257;28;91466;-95
2024/02/20 01:54:18;;;;;;;;;;;;;;;;;;4958517;28;91061;-96
2024/02/20 01:56:43;;;;;;;;;;;;;;;;;;4959606;28;89378;-95
2024/02/20 01:59:09;;;;;;;;;;;;;;;;;;4963512;28;91863;-96
2024/02/20 02:01:35;;;;;;;;;;;;;;;;;;4959499;28;88937;-95
2024/02/20 02:04:01;;;;;;;;;;;;;;;;;;4959491;28;91276;-95
2024/02/20 02:06:27;;;;;;;;;;;;;;;;;;4957965;28;92125;-96
2024/02/20 02:08:52;;;;;;;;;;;;;;;;;;4958421;28;89253;-95
2024/02/20 02:11:17;;;;;;;;;;;;;;;;;;4959032;28;91409;-95
2024/02/20 02:13:43;;;;;;;;;;;;;;;;;;4958321;28;90804;-95
2024/02/20 02:16:08;;;;;;;;;;;;;;;;;;4960278;28;89750;-96
2024/02/20 02:18:34;;;;;;;;;;;;;;;;;;4962273;28;91547;-95
2024/02/20 02:21:00;;;;;;;;;;;;;;;;;;4965617;28;91201;-96
2024/02/20 02:23:25;;;;;;;;;;;;;;;;;;4961723;28;91157;-95
2024/02/20 02:25:50;;;;;;;;;;;;;;;;;;4961638;28;91008;-95
2024/02/20 02:28:16;;;;;;;;;;;;;;;;;;4958957;28;89408;-96
2024/02/20 02:30:41;;;;;;;;;;;;;;;;;;4944096;28;91350;-96
2024/02/20 02:33:07;;;;;;;;;;;;;;;;;;4941423;28;90974;-94
2024/02/20 02:35:32;;;;;;;;;;;;;;;;;;4940222;28;89248;-96
2024/02/20 02:37:58;;;;;;;;;;;;;;;;;;4939370;28;91304;-95
2024/02/20 02:40:23;;;;;;;;;;;;;;;;;;4938249;28;91745;-96
2024/02/20 02:42:48;;;;;;;;;;;;;;;;;;4941897;28;89135;-96
2024/02/20 02:45:13;;;;;;;;;;;;;;;;;;4937776;28;91956;-94
2024/02/20 02:47:39;;;;;;;;;;;;;;;;;;4938838;28;88480;-96
2024/02/20 02:50:05;;;;;;;;;;;;;;;;;;4939398;28;91719;-94
2024/02/20 02:52:30;;;;;;;;;;;;;;;;;;4939354;28;91261;-95
2024/02/20 02:54:56;;;;;;;;;;;;;;;;;;4938463;28;89883;-95
2024/02/20 02:57:21;;;;;;;;;;;;;;;;;;4942869;28;91177;-95
2024/02/20 02:59:46;;;;;;;;;;;;;;;;;;4960913;28;91071;-95
2024/02/20 03:02:12;;;;;;;;;;;;;;;;;;4960358;28;90715;-95
2024/02/20 03:04:38;;;;;;;;;;;;;;;;;;4961663;28;91527;-95
2024/02/20 03:07:03;;;;;;;;;;;;;;;;;;4958481;28;89201;-96
2024/02/20 03:09:28;;;;;;;;;;;;;;;;;;4958030;28;91221;-95
2024/02/20 03:11:54;;;;;;;;;;;;;;;;;;4957987;28;91206;-94
2024/02/20 03:14:21;;;;;;;;;;;;;;;;;;4957186;28;89895;-95
2024/02/20 03:16:47;;;;;;;;;;;;;;;;;;4959697;28;91278;-96
2024/02/20 03:19:12;;;;;;;;;;;;;;;;;;4959143;28;88853;-95
2024/02/20 03:21:37;;;;;;;;;;;;;;;;;;4956238;28;89320;-96
2024/02/20 03:24:04;;;;;;;;;;;;;;;;;;4958099;28;91171;-95
2024/02/20 03:26:30;;;;;;;;;;;;;;;;;;4960731;28;91137;-95
2024/02/20 03:28:55;;;;;;;;;;;;;;;;;;4958474;28;92713;-96
2024/02/20 03:31:21;;;;;;;;;;;;;;;;;;4957552;28;92118;-95
2024/02/20 03:33:46;;;;;;;;;;;;;;;;;;4958193;28;89514;-94
2024/02/20 03:36:12;;;;;;;;;;;;;;;;;;4958537;28;91374;-95
2024/02/20 03:38:37;;;;;;;;;;;;;;;;;;4958433;28;90696;-96
2024/02/20 03:41:03;;;;;;;;;;;;;;;;;;4960005;28;89453;-95
2024/02/20 03:43:29;;;;;;;;;;;;;;;;;;4960590;28;90516;-95
2024/02/20 03:45:54;;;;;;;;;;;;;;;;;;4962688;28;90880;-95
2024/02/20 03:48:19;;;;;;;;;;;;;;;;;;4958772;28;91370;-96
2024/02/20 03:50:45;;;;;;;;;;;;;;;;;;4958482;28;90542;-95
2024/02/20 03:53:10;;;;;;;;;;;;;;;;;;4958777;28;89568;-95
2024/02/20 03:55:36;;;;;;;;;;;;;;;;;;4957727;28;91417;-95
2024/02/20 03:58:01;;;;;;;;;;;;;;;;;;4957856;28;90833;-95
2024/02/20 04:00:27;;;;;;;;;;;;;;;;;;4958075;28;88894;-94
2024/02/20 04:02:56;;;;;;;;;;;;;;;;;;4958830;28;91277;-96
2024/02/20 04:05:22;;;;;;;;;;;;;;;;;;4959854;28;90371;-96
2024/02/20 04:07:47;;;;;;;;;;;;;;;;;;4961183;28;90328;-95
2024/02/20 04:10:14;;;;;;;;;;;;;;;;;;4960267;28;92133;-95
2024/02/20 04:12:40;;;;;;;;;;;;;;;;;;4960712;28;88976;-95
2024/02/20 04:15:10;;;;;;;;;;;;;;;;;;4966889;28;91400;-96
2024/02/20 04:17:37;;;;;;;;;;;;;;;;;;4957977;28;91260;-95
2024/02/20 04:20:04;;;;;;;;;;;;;;;;;;4951768;28;89905;-95
2024/02/20 04:22:39;;;;;;;;;;;;;;;;;;4961372;28;91433;-95
2024/02/20 04:25:07;;;;;;;;;;;;;;;;;;4956305;28;91078;-95
2024/02/20 04:27:33;;;;;;;;;;;;;;;;;;4966363;28;89529;-95
2024/02/20 04:29:58;;;;;;;;;;;;;;;;;;4955992;28;91336;-96
2024/02/20 04:32:23;;;;;;;;;;;;;;;;;;4960851;28;90372;-95
2024/02/20 04:34:49;;;;;;;;;;;;;;;;;;4966422;28;91290;-95
2024/02/20 04:37:15;;;;;;;;;;;;;;;;;;4963563;28;91001;-93
2024/02/20 04:39:43;;;;;;;;;;;;;;;;;;4962880;28;89472;-96
2024/02/20 04:42:09;;;;;;;;;;;;;;;;;;4947573;28;91012;-95
2024/02/20 04:44:35;;;;;;;;;;;;;;;;;;4960778;28;92593;-95
2024/02/20 04:47:02;;;;;;;;;;;;;;;;;;4958799;28;89300;-95
2024/02/20 04:49:27;;;;;;;;;;;;;;;;;;4960815;28;92318;-95
2024/02/20 04:51:52;;;;;;;;;;;;;;;;;;4966862;28;90465;-96
2024/02/20 04:54:18;;;;;;;;;;;;;;;;;;4954678;28;91640;-94
2024/02/20 04:56:43;;;;;;;;;;;;;;;;;;4954117;28;89686;-95
2024/02/20 04:59:08;;;;;;;;;;;;;;;;;;4970729;28;89716;-95
2024/02/20 05:01:34;;;;;;;;;;;;;;;;;;4957991;28;92016;-95
2024/02/20 05:03:59;;;;;;;;;;;;;;;;;;4950653;28;91139;-95
2024/02/20 05:06:28;;;;;;;;;;;;;;;;;;4954291;28;89034;-96
2024/02/20 05:08:54;;;;;;;;;;;;;;;;;;4958050;28;91227;-94
2024/02/20 05:11:19;;;;;;;;;;;;;;;;;;4955393;28;90890;-94
2024/02/20 05:13:45;;;;;;;;;;;;;;;;;;4960771;28;88952;-95
2024/02/20 05:16:10;;;;;;;;;;;;;;;;;;4958840;28;91455;-95
2024/02/20 05:18:36;;;;;;;;;;;;;;;;;;4955822;28;89726;-96
2024/02/20 05:21:01;;;;;;;;;;;;;;;;;;4948234;28;90484;-94
2024/02/20 05:23:27;;;;;;;;;;;;;;;;;;4959537;28;90542;-96
2024/02/20 05:25:53;;;;;;;;;;;;;;;;;;4960499;28;89091;-95
2024/02/20 05:28:18;;;;;;;;;;;;;;;;;;4954420;28;91436;-95
2024/02/20 05:30:44;;;;;;;;;;;;;;;;;;4964612;28;90988;-95
2024/02/20 05:33:10;;;;;;;;;;;;;;;;;;4960355;28;89423;-95
2024/02/20 05:35:35;;;;;;;;;;;;;;;;;;4960552;28;91342;-94
2024/02/20 05:38:00;;;;;;;;;;;;;;;;;;4954182;28;88991;-95
2024/02/20 05:40:28;;;;;;;;;;;;;;;;;;4957342;28;90660;-95
2024/02/20 05:42:54;;;;;;;;;;;;;;;;;;4961770;28;89958;-96
2024/02/20 05:45:19;;;;;;;;;;;;;;;;;;4957377;28;90847;-93
2024/02/20 05:47:45;;;;;;;;;;;;;;;;;;4967546;28;91408;-95
2024/02/20 05:50:10;;;;;;;;;;;;;;;;;;4961734;28;91630;-94
2024/02/20 05:52:36;;;;;;;;;;;;;;;;;;4956542;28;90561;-96
2024/02/20 05:55:02;;;;;;;;;;;;;;;;;;4959118;28;91285;-96
2024/02/20 05:57:30;;;;;;;;;;;;;;;;;;4962294;28;89368;-95
2024/02/20 05:59:55;;;;;;;;;;;;;;;;;;4950326;28;91710;-95
2024/02/20 06:02:20;;;;;;;;;;;;;;;;;;4943593;28;88507;-95
2024/02/20 06:04:49;;;;;;;;;;;;;;;;;;4945982;28;89278;-95
2024/02/20 06:07:15;;;;;;;;;;;;;;;;;;4947027;28;88846;-95
2024/02/20 06:09:41;;;;;;;;;;;;;;;;;;4951407;28;91525;-94
2024/02/20 06:12:09;;;;;;;;;;;;;;;;;;4960433;28;90682;-94
2024/02/20 06:14:34;;;;;;;;;;;;;;;;;;4951765;28;88914;-94
2024/02/20 06:16:59;;;;;;;;;;;;;;;;;;4955347;28;90980;-95
2024/02/20 06:19:25;;;;;;;;;;;;;;;;;;4949375;28;90847;-94
2024/02/20 06:21:50;;;;;;;;;;;;;;;;;;4952807;28;90733;-94
2024/02/20 06:24:15;;;;;;;;;;;;;;;;;;4951707;28;90534;-95
2024/02/20 06:26:41;;;;;;;;;;;;;;;;;;4963610;28;91298;-95
2024/02/20 06:29:06;;;;;;;;;;;;;;;;;;4951901;28;90997;-95
2024/02/20 06:31:34;;;;;;;;;;;;;;;;;;4961064;28;90010;-94
2024/02/20 06:34:02;;;;;;;;;;;;;;;;;;4958259;28;91470;-94
2024/02/20 06:36:27;;;;;;;;;;;;;;;;;;4961206;28;92121;-94
2024/02/20 06:38:52;;;;;;;;;;;;;;;;;;4965307;28;90775;-94
2024/02/20 06:41:18;;;;;;;;;;;;;;;;;;4963661;28;90939;-96
2024/02/20 06:43:43;;;;;;;;;;;;;;;;;;4959368;28;89675;-93
2024/02/20 06:46:08;;;;;;;;;;;;;;;;;;4950702;28;92409;-94
2024/02/20 06:48:34;;;;;;;;;;;;;;;;;;4962663;28;91140;-94
2024/02/20 06:50:59;;;;;;;;;;;;;;;;;;4962357;28;89420;-94
2024/02/20 06:53:25;;;;;;;;;;;;;;;;;;4955149;28;92396;-93
2024/02/20 06:55:50;;;;;;;;;;;;;;;;;;4963660;28;90679;-94
2024/02/20 06:58:15;;;;;;;;;;;;;;;;;;4961744;28;90463;-93
2024/02/20 07:00:40;;;;;;;;;;;;;;;;;;4968589;28;92537;-93
2024/02/20 07:03:06;;;;;;;;;;;;;;;;;;4959504;28;89512;-93
2024/02/20 07:05:32;;;;;;;;;;;;;;;;;;4953616;28;90967;-94
2024/02/20 07:07:57;;;;;;;;;;;;;;;;;;4956510;28;91044;-95
2024/02/20 07:10:23;;;;;;;;;;;;;;;;;;4950024;28;89499;-94
2024/02/20 07:12:48;;;;;;;;;;;;;;;;;;4963135;28;92323;-93
2024/02/20 07:15:13;;;;;;;;;;;;;;;;;;4958586;28;90504;-93
2024/02/20 07:17:39;;;;;;;;;;;;;;;;;;4954104;28;90496;-94
2024/02/20 07:20:04;;;;;;;;;;;;;;;;;;4955692;28;91628;-93
2024/02/20 07:22:32;;;;;;;;;;;;;;;;;;4961792;28;92561;-94
2024/02/20 07:24:57;;;;;;;;;;;;;;;;;;4951580;28;91475;-94
2024/02/20 07:27:22;;;;;;;;;;;;;;;;;;4954170;28;91692;-93
2024/02/20 07:29:49;;;;;;;;;;;;;;;;;;4951391;28;89951;-94
2024/02/20 07:32:15;;;;;;;;;;;;;;;;;;4956365;28;91078;-87
2024/02/20 07:34:40;;;;;;;;;;;;;;;;;;4949628;28;92030;-92
2024/02/20 07:37:06;;;;;;;;;;;;;;;;;;4946476;28;89464;-91
2024/02/20 07:39:31;;;;;;;;;;;;;;;;;;4949709;28;92324;-89
2024/02/20 07:41:56;;;;;;;;;;;;;;;;;;4933779;28;89640;-89
2024/02/20 07:44:21;;;;;;;;;;;;;;;;;;4956403;28;89668;-91
2024/02/20 07:46:47;;;;;;;;;;;;;;;;;;4945178;28;89653;-91
2024/02/20 07:49:13;;;;;;;;;;;;;;;;;;4936797;28;90987;-91
2024/02/20 07:51:38;;;;;;;;;;;;;;;;;;4937547;28;92278;-91
2024/02/20 07:54:03;;;;;;;;;;;;;;;;;;4943636;28;90765;-93
2024/02/20 07:56:31;;;;;;;;;;;;;;;;;;4946840;28;89048;-91
2024/02/20 07:58:56;;;;;;;;;;;;;;;;;;4943643;28;89915;-93
2024/02/20 08:01:23;;;;;;;;;;;;;;;;;;4950595;28;91458;-94
2024/02/20 08:03:48;;;;;;;;;;;;;;;;;;4961908;28;89797;-93
2024/02/20 08:06:14;;;;;;;;;;;;;;;;;;4948937;28;90623;-94
2024/02/20 08:08:40;;;;;;;;;;;;;;;;;;4940758;28;89527;-93
2024/02/20 08:11:06;;;;;;;;;;;;;;;;;;4939684;28;91016;-94
2024/02/20 08:13:31;;;;;;;;;;;;;;;;;;4950791;28;90731;-93
2024/02/20 08:15:58;;;;;;;;;;;;;;;;;;4940406;28;89981;-93
2024/02/20 08:18:23;;;;;;;;;;;;;;;;;;4941682;28;89282;-95
2024/02/20 08:20:49;;;;;;;;;;;;;;;;;;4944102;28;89099;-91
2024/02/20 08:23:14;;;;;;;;;;;;;;;;;;4944165;28;90671;-93
2024/02/20 08:25:40;;;;;;;;;;;;;;;;;;4944593;28;91654;-94
2024/02/20 08:28:05;;;;;;;;;;;;;;;;;;4942445;28;89061;-94
2024/02/20 08:30:30;;;;;;;;;;;;;;;;;;4945638;28;91691;-95
2024/02/20 08:32:57;;;;;;;;;;;;;;;;;;4941912;28;89695;-93
2024/02/20 08:35:22;;;;;;;;;;;;;;;;;;4943717;28;90912;-95
2024/02/20 08:37:47;;;;;;;;;;;;;;;;;;4942366;28;88941;-95
2024/02/20 08:40:12;;;;;;;;;;;;;;;;;;4958081;28;91008;-94
2024/02/20 08:42:38;;;;;;;;;;;;;;;;;;4949995;28;89398;-95
2024/02/20 08:45:04;;;;;;;;;;;;;;;;;;4942443;28;89049;-94
2024/02/20 08:47:30;;;;;;;;;;;;;;;;;;4947830;28;89170;-92
2024/02/20 08:49:56;;;;;;;;;;;;;;;;;;4957222;28;91789;-94
2024/02/20 08:52:21;;;;;;;;;;;;;;;;;;4934616;28;91794;-93
2024/02/20 08:54:50;;;;;;;;;;;;;;;;;;4963526;28;89777;-92
2024/02/20 08:57:15;;;;;;;;;;;;;;;;;;4945403;28;88954;-90
2024/02/20 08:59:41;;;;;;;;;;;;;;;;;;4942776;28;89724;-94
2024/02/20 09:02:06;;;;;;;;;;;;;;;;;;4952717;28;91115;-92
2024/02/20 09:04:31;;;;;;;;;;;;;;;;;;4945388;28;91153;-91
2024/02/20 09:06:58;;;;;;;;;;;;;;;;;;4945164;28;89403;-92
2024/02/20 09:09:23;;;;;;;;;;;;;;;;;;4947847;28;89023;-94
2024/02/20 09:11:49;;;;;;;;;;;;;;;;;;4939822;28;89430;-92
2024/02/20 09:14:24;;;;;;;;;;;;;;;;;;4945641;28;89631;-91
2024/02/20 09:16:49;;;;;;;;;;;;;;;;;;4965538;28;91468;-91
2024/02/20 09:19:15;;;;;;;;;;;;;;;;;;4944545;28;90761;-91
2024/02/20 09:21:41;;;;;;;;;;;;;;;;;;4949111;28;90020;-92
2024/02/20 09:24:10;;;;;;;;;;;;;;;;;;4944324;28;89550;-95
2024/02/20 09:26:35;;;;;;;;;;;;;;;;;;4959440;28;92165;-92
2024/02/20 09:29:01;;;;;;;;;;;;;;;;;;4950205;28;89396;-94
2024/02/20 09:31:26;;;;;;;;;;;;;;;;;;4948889;28;89196;-94
2024/02/20 09:33:51;;;;;;;;;;;;;;;;;;4947273;28;89994;-94
2024/02/20 09:36:16;;;;;;;;;;;;;;;;;;4961260;28;92675;-90
2024/02/20 09:38:41;;;;;;;;;;;;;;;;;;4959625;28;91445;-95
2024/02/20 09:41:09;;;;;;;;;;;;;;;;;;4945904;28;89077;-94
2024/02/20 09:43:35;;;;;;;;;;;;;;;;;;4941892;28;89722;-91
2024/02/20 09:46:10;;;;;;;;;;;;;;;;;;4948703;28;89283;-92
2024/02/20 09:48:35;;;;;;;;;;;;;;;;;;4939053;28;89070;-93
2024/02/20 09:51:04;;;;;;;;;;;;;;;;;;4947306;28;90079;-92
2024/02/20 09:53:30;;;;;;;;;;;;;;;;;;4946014;28;88989;-92
2024/02/20 09:55:56;;;;;;;;;;;;;;;;;;4946332;28;88976;-89
2024/02/20 09:58:21;;;;;;;;;;;;;;;;;;4943867;28;89422;-85
2024/02/20 10:00:46;;;;;;;;;;;;;;;;;;4941560;28;89309;-91
2024/02/20 10:03:12;;;;;;;;;;;;;;;;;;4946167;28;92948;-90
2024/02/20 10:05:42;;;;;;;;;;;;;;;;;;4949999;28;91255;-88
2024/02/20 10:08:07;;;;;;;;;;;;;;;;;;4935313;28;89779;-90
2024/02/20 10:10:35;;;;;;;;;;;;;;;;;;4952847;28;92771;-88
2024/02/20 10:13:01;;;;;;;;;;;;;;;;;;4963265;28;91855;-89
2024/02/20 10:15:26;;;;;;;;;;;;;;;;;;4942498;28;92090;-89
2024/02/20 10:17:58;;;;;;;;;;;;;;;;;;4940657;28;89500;-89
2024/02/20 10:20:24;;;;;;;;;;;;;;;;;;4944357;28;89231;-88
2024/02/20 10:22:49;;;;;;;;;;;;;;;;;;4940152;28;92889;-90
2024/02/20 10:25:14;;;;;;;;;;;;;;;;;;4946325;28;91943;-90
2024/02/20 10:27:40;;;;;;;;;;;;;;;;;;4943138;28;88977;-89
2024/02/20 10:30:07;;;;;;;;;;;;;;;;;;4941657;28;90060;-85
2024/02/20 10:32:34;;;;;;;;;;;;;;;;;;4946894;28;91857;-90
2024/02/20 10:35:04;;;;;;;;;;;;;;;;;;4956115;28;89043;-83
2024/02/20 10:37:29;;;;;;;;;;;;;;;;;;4943992;28;92297;-94
2024/02/20 10:40:11;;;;;;;;;;;;;;;;;;4946261;28;89244;-90
2024/02/20 10:42:39;;;;;;;;;;;;;;;;;;4950837;28;91156;-89
2024/02/20 10:45:09;;;;;;;;;;;;;;;;;;4945231;28;89448;-89
2024/02/20 10:47:45;;;;;;;;;;;;;;;;;;4939532;28;89525;-91
2024/02/20 10:50:11;;;;;;;;;;;;;;;;;;4944461;28;89628;-87
2024/02/20 10:52:44;;;;;;;;;;;;;;;;;;4951523;28;90707;-88
2024/02/20 10:55:12;;;;;;;;;;;;;;;;;;4946231;28;89487;-90
2024/02/20 10:57:38;;;;;;;;;;;;;;;;;;4945146;28;90164;-90
2024/02/20 11:00:09;;;;;;;;;;;;;;;;;;4942759;28;89340;-92
2024/02/20 11:02:44;;;;;;;;;;;;;;;;;;4943462;28;89495;-90
2024/02/20 11:05:12;;;;;;;;;;;;;;;;;;4933437;28;91239;-87
2024/02/20 11:07:37;;;;;;;;;;;;;;;;;;4942154;28;89219;-90
2024/02/20 11:10:16;;;;;;;;;;;;;;;;;;4939614;28;92875;-90
2024/02/20 11:12:41;;;;;;;;;;;;;;;;;;4946874;28;91085;-93
2024/02/20 11:15:11;;;;;;;;;;;;;;;;;;4953757;28;90601;-90
2024/02/20 11:17:37;;;;;;;;;;;;;;;;;;4939009;28;92451;-89
2024/02/20 11:20:09;;;;;;;;;;;;;;;;;;4944314;28;90213;-90
2024/02/20 11:22:35;;;;;;;;;;;;;;;;;;4949752;28;91305;-90
2024/02/20 11:25:08;;;;;;;;;;;;;;;;;;4943127;28;89480;-91
2024/02/20 11:27:44;;;;;;;;;;;;;;;;;;4940329;28;89108;-90
2024/02/20 11:30:22;;;;;;;;;;;;;;;;;;4948170;28;91277;-81
2024/02/20 11:32:49;;;;;;;;;;;;;;;;;;4940054;28;89636;-83
2024/02/20 11:35:25;;;;;;;;;;;;;;;;;;4938628;28;89327;-82
2024/02/20 11:37:51;;;;;;;;;;;;;;;;;;4945657;28;89577;-84
2024/02/20 11:40:22;;;;;;;;;;;;;;;;;;4944025;28;90839;-80
2024/02/20 11:42:48;;;;;;;;;;;;;;;;;;4942989;28;90781;-85
2024/02/20 11:45:20;;;;;;;;;;;;;;;;;;4942357;28;89066;-84
2024/02/20 11:48:05;;;;;;;;;;;;;;;;;;4945541;28;89198;-83
2024/02/20 11:50:34;;;;;;;;;;;;;;;;;;4959341;28;92329;-82
2024/02/20 11:53:00;;;;;;;;;;;;;;;;;;4941712;28;92749;-81
2024/02/20 11:55:26;;;;;;;;;;;;;;;;;;4940697;28;89377;-87
2024/02/20 11:57:52;;;;;;;;;;;;;;;;;;4947191;28;92826;-81
2024/02/20 12:00:17;;;;;;;;;;;;;;;;;;4941514;28;90476;-84
2024/02/20 12:02:43;;;;;;;;;;;;;;;;;;4941347;28;89465;-86
2024/02/20 12:05:08;;;;;;;;;;;;;;;;;;4946310;28;88960;-82
2024/02/20 12:07:34;;;;;;;;;;;;;;;;;;4938144;28;89247;-83
2024/02/20 12:10:01;;;;;;;;;;;;;;;;;;4939642;28;89672;-83
2024/02/20 12:12:30;;;;;;;;;;;;;;;;;;4950524;28;89366;-81
2024/02/20 12:14:58;;;;;;;;;;;;;;;;;;4937584;28;89319;-82
2024/02/20 12:17:27;;;;;;;;;;;;;;;;;;4940940;28;89492;-81
2024/02/20 12:20:02;;;;;;;;;;;;;;;;;;4931450;28;89318;-86
2024/02/20 12:22:28;;;;;;;;;;;;;;;;;;4938253;28;90399;-79
2024/02/20 12:25:03;;;;;;;;;;;;;;;;;;4955915;28;92609;-79
2024/02/20 12:27:28;;;;;;;;;;;;;;;;;;4938396;28;89649;-85
2024/02/20 12:29:54;;;;;;;;;;;;;;;;;;4946559;28;92533;-84
2024/02/20 12:32:19;;;;;;;;;;;;;;;;;;4937224;28;92553;-83
2024/02/20 12:34:44;;;;;;;;;;;;;;;;;;4936762;28;89016;-82
2024/02/20 12:37:09;;;;;;;;;;;;;;;;;;4940246;28;89397;-81
2024/02/20 12:39:35;;;;;;;;;;;;;;;;;;4941993;28;89643;-82
2024/02/20 12:42:00;;;;;;;;;;;;;;;;;;4948570;28;89223;-86
2024/02/20 12:44:25;;;;;;;;;;;;;;;;;;4935403;28;89459;-85
2024/02/20 12:46:51;;;;;;;;;;;;;;;;;;4946755;28;89265;-84
2024/02/20 12:49:16;;;;;;;;;;;;;;;;;;4948983;28;89747;-82
2024/02/20 12:51:42;;;;;;;;;;;;;;;;;;4947814;28;91780;-87
2024/02/20 12:54:07;;;;;;;;;;;;;;;;;;4943131;28;90353;-82
2024/02/20 12:56:33;;;;;;;;;;;;;;;;;;4945415;28;92686;-83
2024/02/20 12:58:59;;;;;;;;;;;;;;;;;;4939252;28;89408;-86
2024/02/20 13:01:24;;;;;;;;;;;;;;;;;;4933523;28;91043;-81
2024/02/20 13:03:49;;;;;;;;;;;;;;;;;;4940016;28;90116;-85
2024/02/20 13:06:14;;;;;;;;;;;;;;;;;;4955409;28;91786;-84
2024/02/20 13:08:40;;;;;;;;;;;;;;;;;;4950807;28;89485;-85
2024/02/20 13:11:06;;;;;;;;;;;;;;;;;;4941117;28;90035;-85
2024/02/20 13:13:31;;;;;;;;;;;;;;;;;;4936572;28;89431;-82
2024/02/20 13:15:56;;;;;;;;;;;;;;;;;;4943548;28;89778;-84
2024/02/20 13:18:22;;;;;;;;;;;;;;;;;;4940972;28;89308;-83
2024/02/20 13:20:48;;;;;;;;;;;;;;;;;;4946366;28;90767;-86
2024/02/20 13:23:13;;;;;;;;;;;;;;;;;;4942987;28;89338;-82
2024/02/20 13:25:39;;;;;;;;;;;;;;;;;;4943619;28;89422;-82
2024/02/20 13:28:07;;;;;;;;;;;;;;;;;;4940883;28;91047;-81
2024/02/20 13:30:32;;;;;;;;;;;;;;;;;;4954951;28;92863;-84
2024/02/20 13:32:58;;;;;;;;;;;;;;;;;;4948930;28;91061;-85
2024/02/20 13:35:23;;;;;;;;;;;;;;;;;;4941338;28;88999;-84
2024/02/20 13:37:48;;;;;;;;;;;;;;;;;;4940925;28;89253;-82
2024/02/20 13:40:14;;;;;;;;;;;;;;;;;;4955950;28;90934;-82
2024/02/20 13:42:39;;;;;;;;;;;;;;;;;;4942716;28;90207;-85
2024/02/20 13:45:05;;;;;;;;;;;;;;;;;;4938960;28;89352;-86
2024/02/20 13:47:32;;;;;;;;;;;;;;;;;;4940869;28;89459;-84
2024/02/20 13:49:57;;;;;;;;;;;;;;;;;;4953270;28;92761;-85
2024/02/20 13:52:23;;;;;;;;;;;;;;;;;;4943143;28;89564;-86
2024/02/20 13:54:48;;;;;;;;;;;;;;;;;;4946470;28;90264;-85
2024/02/20 13:57:13;;;;;;;;;;;;;;;;;;4940639;28;89322;-82
2024/02/20 13:59:39;;;;;;;;;;;;;;;;;;4936170;28;90247;-84
2024/02/20 14:02:08;;;;;;;;;;;;;;;;;;4947738;28;93673;-82
2024/02/20 14:04:33;;;;;;;;;;;;;;;;;;4939444;28;89444;-84
2024/02/20 14:06:58;;;;;;;;;;;;;;;;;;4936831;28;89259;-84
2024/02/20 14:09:24;;;;;;;;;;;;;;;;;;4938234;28;89681;-86
2024/02/20 14:11:50;;;;;;;;;;;;;;;;;;4943024;28;89596;-84
2024/02/20 14:14:15;;;;;;;;;;;;;;;;;;4936127;28;90164;-81
2024/02/20 14:16:40;;;;;;;;;;;;;;;;;;4946060;28;91487;-87
2024/02/20 14:19:08;;;;;;;;;;;;;;;;;;4939329;28;89485;-80
2024/02/20 14:21:33;;;;;;;;;;;;;;;;;;4936195;28;89760;-78
2024/02/20 14:23:58;;;;;;;;;;;;;;;;;;4943316;28;89652;-79
2024/02/20 14:26:23;;;;;;;;;;;;;;;;;;4942002;28;90810;-80
2024/02/20 14:28:49;;;;;;;;;;;;;;;;;;4937081;28;89653;-83
2024/02/20 14:31:15;;;;;;;;;;;;;;;;;;4937313;28;92047;-80
2024/02/20 14:33:43;;;;;;;;;;;;;;;;;;4940315;28;89632;-81
2024/02/20 14:36:08;;;;;;;;;;;;;;;;;;4945908;28;92617;-81
2024/02/20 14:38:33;;;;;;;;;;;;;;;;;;4946505;28;90278;-80
2024/02/20 14:40:59;;;;;;;;;;;;;;;;;;4947007;28;92229;-82
2024/02/20 14:43:24;;;;;;;;;;;;;;;;;;4932554;28;89386;-81
2024/02/20 14:45:50;;;;;;;;;;;;;;;;;;4952260;28;90458;-82
2024/02/20 14:48:15;;;;;;;;;;;;;;;;;;4938921;28;90166;-79
2024/02/20 14:50:41;;;;;;;;;;;;;;;;;;4935626;28;91805;-80
2024/02/20 14:53:07;;;;;;;;;;;;;;;;;;4944683;28;89295;-79
2024/02/20 14:55:33;;;;;;;;;;;;;;;;;;4956936;28;92435;-80
2024/02/20 14:57:59;;;;;;;;;;;;;;;;;;4943908;28;89493;-80
2024/02/20 15:00:25;;;;;;;;;;;;;;;;;;4938167;28;89583;-81
2024/02/20 15:02:50;;;;;;;;;;;;;;;;;;4946834;28;92263;-80
2024/02/20 15:05:15;;;;;;;;;;;;;;;;;;4945777;28;90691;-84
2024/02/20 15:07:41;;;;;;;;;;;;;;;;;;4936675;28;89910;-79
2024/02/20 15:10:07;;;;;;;;;;;;;;;;;;4937183;28;92085;-81
2024/02/20 15:12:32;;;;;;;;;;;;;;;;;;4928236;28;90728;-80
2024/02/20 15:14:57;;;;;;;;;;;;;;;;;;4932250;28;92659;-80
2024/02/20 15:17:23;;;;;;;;;;;;;;;;;;4944059;28;89611;-82
2024/02/20 15:19:50;;;;;;;;;;;;;;;;;;4944922;28;92268;-82
2024/02/20 15:22:15;;;;;;;;;;;;;;;;;;4958531;28;92308;-80
2024/02/20 15:24:41;;;;;;;;;;;;;;;;;;4939374;28;89203;-81
2024/02/20 15:27:07;;;;;;;;;;;;;;;;;;4940380;28;89593;-80
2024/02/20 15:29:32;;;;;;;;;;;;;;;;;;4945480;28;91921;-80
2024/02/20 15:31:58;;;;;;;;;;;;;;;;;;4942797;28;91485;-79
2024/02/20 15:34:26;;;;;;;;;;;;;;;;;;4940128;28;89422;-81
2024/02/20 15:36:51;;;;;;;;;;;;;;;;;;4936811;28;89368;-79
2024/02/20 15:39:18;;;;;;;;;;;;;;;;;;4947285;28;90525;-79
2024/02/20 15:41:43;;;;;;;;;;;;;;;;;;4938561;28;92331;-82
2024/02/20 15:44:08;;;;;;;;;;;;;;;;;;4942115;28;89655;-80
2024/02/20 15:46:33;;;;;;;;;;;;;;;;;;4934395;28;89411;-82
2024/02/20 15:49:00;;;;;;;;;;;;;;;;;;4944773;28;91069;-80
2024/02/20 15:51:28;;;;;;;;;;;;;;;;;;4943398;28;90428;-81
2024/02/20 15:53:54;;;;;;;;;;;;;;;;;;4933965;28;91978;-79
2024/02/20 15:56:20;;;;;;;;;;;;;;;;;;4938883;28;89520;-81
2024/02/20 15:58:45;;;;;;;;;;;;;;;;;;4939556;28;89151;-82
2024/02/20 16:01:12;;;;;;;;;;;;;;;;;;4940919;28;89472;-79
2024/02/20 16:03:38;;;;;;;;;;;;;;;;;;4941466;28;89685;-79
2024/02/20 16:06:04;;;;;;;;;;;;;;;;;;4937983;28;90059;-80
2024/02/20 16:08:29;;;;;;;;;;;;;;;;;;4935845;28;89297;-80
2024/02/20 16:10:58;;;;;;;;;;;;;;;;;;4936317;28;89331;-80
2024/02/20 16:13:24;;;;;;;;;;;;;;;;;;4932207;28;90818;-80
2024/02/20 16:15:49;;;;;;;;;;;;;;;;;;4940691;28;89810;-81
2024/02/20 16:18:14;;;;;;;;;;;;;;;;;;4942993;28;89622;-78
2024/02/20 16:20:39;;;;;;;;;;;;;;;;;;4947336;28;90025;-81
2024/02/20 16:23:08;;;;;;;;;;;;;;;;;;4957683;28;90359;-84
2024/02/20 16:25:33;;;;;;;;;;;;;;;;;;4949834;28;92458;-81
2024/02/20 16:27:58;;;;;;;;;;;;;;;;;;4945009;28;89198;-83
2024/02/20 16:30:24;;;;;;;;;;;;;;;;;;4937647;28;89637;-83
2024/02/20 16:32:49;;;;;;;;;;;;;;;;;;4940262;28;91389;-86
2024/02/20 16:35:14;;;;;;;;;;;;;;;;;;4940225;28;89764;-84
2024/02/20 16:37:40;;;;;;;;;;;;;;;;;;4945671;28;89131;-82